createdAt,value
2022-09-06T00:02:06.014Z,101394.41
2022-09-06T00:04:36.045Z,101401.34
2022-09-06T00:07:05.614Z,101414.50
2022-09-06T00:09:34.966Z,101417.25
2022-09-06T00:12:04.125Z,101412.34
2022-09-06T00:14:36.013Z,101427.94
2022-09-06T00:17:06.423Z,101430.44
2022-09-06T00:19:35.430Z,101452.34
2022-09-06T00:22:04.338Z,101437.88
2022-09-06T00:24:33.236Z,101442.94
2022-09-06T00:27:02.155Z,101445.25
2022-09-06T00:29:31.097Z,101454.28
2022-09-06T00:32:00.515Z,101472.91
2022-09-06T00:34:30.884Z,101482.88
2022-09-06T00:36:59.707Z,101492.06
2022-09-06T00:39:30.922Z,101413.88
2022-09-06T00:41:59.860Z,101494.91
2022-09-06T00:44:28.727Z,101494.56
2022-09-06T00:46:58.416Z,101498.66
2022-09-06T00:49:32.972Z,101500.41
2022-09-06T00:52:05.042Z,101510.50
2022-09-06T00:54:34.100Z,101518.28
2022-09-06T00:57:03.435Z,101514.34
2022-09-06T00:59:35.118Z,101522.72
2022-09-06T01:02:09.410Z,101508.88
2022-09-06T01:04:41.701Z,101492.91
2022-09-06T01:07:19.806Z,101504.47
2022-09-06T01:10:04.369Z,101494.41
2022-09-06T01:12:42.962Z,101484.88
2022-09-06T01:15:25.859Z,101485.75
2022-09-06T01:18:07.582Z,101479.06
2022-09-06T01:21:08.905Z,101471.13
2022-09-06T01:24:10.258Z,101465.84
2022-09-06T01:27:20.789Z,101453.53
2022-09-06T01:29:53.633Z,101455.94
2022-09-06T01:32:27.326Z,101448.00
2022-09-06T01:35:04.228Z,101431.19
2022-09-06T01:37:34.402Z,101417.50
2022-09-06T01:40:04.416Z,101409.31
2022-09-06T01:42:36.719Z,101397.66
2022-09-06T01:45:10.115Z,101395.25
2022-09-06T01:47:46.079Z,101378.19
2022-09-06T01:50:35.983Z,101353.16
2022-09-06T01:53:18.499Z,101360.41
2022-09-06T01:55:58.507Z,101349.81
2022-09-06T01:58:43.374Z,101339.25
2022-09-06T02:01:23.072Z,101343.78
2022-09-06T02:04:01.891Z,101332.50
2022-09-06T02:06:34.356Z,101326.00
2022-09-06T02:09:10.322Z,101309.66
2022-09-06T02:11:44.608Z,101333.94
2022-09-06T02:14:18.978Z,101344.97
2022-09-06T02:16:55.047Z,101346.38
2022-09-06T02:19:34.119Z,101335.56
2022-09-06T02:22:07.133Z,101353.91
2022-09-06T02:24:40.762Z,101350.31
2022-09-06T02:27:09.850Z,101343.97
2022-09-06T02:29:39.406Z,101341.84
2022-09-06T02:32:15.078Z,101342.53
2022-09-06T02:34:46.243Z,101362.19
2022-09-06T02:37:16.920Z,101357.75
2022-09-06T02:39:47.838Z,101362.41
2022-09-06T02:42:18.675Z,101361.34
2022-09-06T02:44:47.981Z,101368.31
2022-09-06T02:47:19.222Z,101382.78
2022-09-06T02:49:48.096Z,101328.81
2022-09-06T02:52:18.248Z,101383.28
2022-09-06T02:54:47.315Z,101380.38
2022-09-06T02:57:16.217Z,101374.00
2022-09-06T02:59:46.294Z,101391.25
2022-09-06T03:02:15.848Z,101389.88
2022-09-06T03:04:46.261Z,101392.03
2022-09-06T03:07:15.199Z,101389.34
2022-09-06T03:09:44.276Z,101387.41
2022-09-06T03:12:13.273Z,101392.13
2022-09-06T03:14:45.774Z,101392.31
2022-09-06T03:17:14.662Z,101396.13
2022-09-06T03:19:43.671Z,101390.47
2022-09-06T03:22:13.790Z,101379.59
2022-09-06T03:24:42.850Z,101378.72
2022-09-06T03:27:11.588Z,101375.09
2022-09-06T03:29:40.375Z,101389.13
2022-09-06T03:32:09.535Z,101392.38
2022-09-06T03:34:38.614Z,101385.19
2022-09-06T03:37:07.514Z,101390.59
2022-09-06T03:39:40.704Z,101400.06
2022-09-06T03:42:09.769Z,101399.69
2022-09-06T03:44:38.724Z,101414.59
2022-09-06T03:47:11.393Z,101421.91
2022-09-06T03:49:40.276Z,101407.59
2022-09-06T03:52:09.512Z,101428.75
2022-09-06T03:54:38.665Z,101446.16
2022-09-06T03:57:09.390Z,101432.66
2022-09-06T03:59:38.520Z,101435.69
2022-09-06T04:02:07.886Z,101441.13
2022-09-06T04:04:37.031Z,101433.56
2022-09-06T04:07:06.633Z,101438.06
2022-09-06T04:09:35.444Z,101444.53
2022-09-06T04:12:04.805Z,101443.69
2022-09-06T04:14:35.115Z,101438.63
2022-09-06T04:17:04.147Z,101434.81
2022-09-06T04:19:33.953Z,101422.81
2022-09-06T04:22:05.505Z,101428.28
2022-09-06T04:24:34.479Z,101436.06
2022-09-06T04:27:06.381Z,101434.81
2022-09-06T04:29:36.680Z,101421.84
2022-09-06T04:32:08.679Z,101429.03
2022-09-06T04:34:40.698Z,101441.97
2022-09-06T04:37:10.741Z,101448.19
2022-09-06T04:39:40.938Z,101452.31
2022-09-06T04:42:09.912Z,101450.41
2022-09-06T04:44:40.481Z,101452.16
2022-09-06T04:47:14.833Z,101455.22
2022-09-06T04:49:44.454Z,101421.31
2022-09-06T04:52:14.102Z,101451.97
2022-09-06T04:54:46.448Z,101439.41
2022-09-06T04:57:15.266Z,101428.78
2022-09-06T04:59:45.697Z,101431.41
2022-09-06T05:02:14.837Z,101423.91
2022-09-06T05:04:46.681Z,101422.75
2022-09-06T05:07:16.327Z,101425.59
2022-09-06T05:09:45.596Z,101341.38
2022-09-06T05:12:14.501Z,101415.38
2022-09-06T05:14:45.258Z,101392.50
2022-09-06T05:17:14.882Z,101407.28
2022-09-06T05:19:44.006Z,101407.59
2022-09-06T05:22:13.087Z,101420.06
2022-09-06T05:24:42.194Z,101429.53
2022-09-06T05:27:12.760Z,101424.94
2022-09-06T05:29:42.425Z,101421.34
2022-09-06T05:32:12.612Z,101417.88
2022-09-06T05:34:41.390Z,101409.50
2022-09-06T05:37:10.131Z,101406.56
2022-09-06T05:39:41.484Z,101410.03
2022-09-06T05:42:17.173Z,101413.03
2022-09-06T05:44:47.997Z,101407.28
2022-09-06T05:47:18.556Z,101408.53
2022-09-06T05:49:48.257Z,101404.25
2022-09-06T05:52:18.491Z,101400.44
2022-09-06T05:54:47.541Z,101394.94
2022-09-06T06:01:38.393Z,101393.09
2022-09-06T06:04:09.011Z,101392.03
2022-09-06T06:06:37.765Z,101382.28
2022-09-06T06:09:07.040Z,101421.50
2022-09-06T06:11:36.111Z,101388.13
2022-09-06T06:14:05.916Z,101392.88
2022-09-06T06:16:35.671Z,101390.88
2022-09-06T06:19:05.300Z,101389.50
2022-09-06T06:21:38.480Z,101359.13
2022-09-06T06:24:08.189Z,101387.19
2022-09-06T06:26:38.108Z,101383.13
2022-09-06T06:29:09.761Z,101382.63
2022-09-06T06:31:41.377Z,101367.47
2022-09-06T06:34:10.418Z,101363.66
2022-09-06T06:36:44.421Z,101366.53
2022-09-06T06:39:13.865Z,101367.03
2022-09-06T06:41:43.508Z,101369.19
2022-09-06T06:44:31.730Z,101358.75
2022-09-06T06:47:02.649Z,101363.53
2022-09-06T06:49:31.825Z,101359.44
2022-09-06T06:52:05.241Z,101357.63
2022-09-06T06:54:34.592Z,101359.88
2022-09-06T06:57:04.461Z,101362.53
2022-09-06T06:59:33.448Z,101359.44
2022-09-06T07:02:02.610Z,101340.84
2022-09-06T07:04:32.080Z,101354.97
2022-09-06T07:12:44.550Z,101316.41
2022-09-06T07:15:14.012Z,101374.72
2022-09-06T07:17:45.650Z,101366.25
2022-09-06T07:20:15.377Z,101365.53
2022-09-06T07:25:49.760Z,101375.09
2022-09-06T07:28:19.160Z,101373.34
2022-09-06T07:30:48.580Z,101368.41
2022-09-06T07:33:19.064Z,101366.38
2022-09-06T07:35:56.684Z,101360.13
2022-09-06T07:38:27.943Z,101356.34
2022-09-06T07:41:01.789Z,101347.91
2022-09-06T07:43:31.630Z,101345.06
2022-09-06T07:46:02.700Z,101344.50
2022-09-06T07:48:32.752Z,101227.66
2022-09-06T07:51:07.569Z,101343.44
2022-09-06T07:53:38.970Z,101346.50
2022-09-06T07:56:11.317Z,101345.16
2022-09-06T07:58:42.856Z,101350.19
2022-09-06T08:01:20.690Z,101341.53
2022-09-06T08:03:49.937Z,101339.03
2022-09-06T08:06:19.562Z,101348.22
2022-09-06T08:08:58.724Z,101341.41
2022-09-06T08:11:30.555Z,101350.19
2022-09-06T08:14:01.404Z,101349.22
2022-09-06T08:16:32.431Z,101347.81
2022-09-06T08:19:03.561Z,101341.66
2022-09-06T08:21:34.578Z,101346.00
2022-09-06T08:24:07.300Z,101357.72
2022-09-06T08:26:40.342Z,101350.97
2022-09-06T08:29:10.265Z,101355.44
2022-09-06T08:31:41.132Z,101351.50
2022-09-06T08:34:12.737Z,101344.25
2022-09-06T08:36:43.230Z,101364.91
2022-09-06T08:39:14.165Z,101360.03
2022-09-06T08:41:53.256Z,101355.56
2022-09-06T08:47:17.593Z,101345.25
2022-09-06T08:49:49.197Z,101325.22
2022-09-06T08:52:33.075Z,101343.34
2022-09-06T08:55:17.498Z,101342.16
2022-09-06T08:57:59.839Z,101298.75
2022-09-06T09:00:30.415Z,101329.84
2022-09-06T09:03:09.579Z,101334.91
2022-09-06T09:05:43.935Z,101341.91
2022-09-06T09:08:23.609Z,101344.56
2022-09-06T09:10:59.466Z,101346.13
2022-09-06T09:13:33.757Z,101339.56
2022-09-06T09:16:03.276Z,101339.94
2022-09-06T09:18:36.111Z,101330.78
2022-09-06T09:21:06.461Z,101333.75
2022-09-06T09:23:36.200Z,101338.06
2022-09-06T09:26:11.762Z,101312.72
2022-09-06T09:29:01.618Z,101349.06
2022-09-06T09:31:36.573Z,101343.06
2022-09-06T09:34:06.030Z,101335.50
2022-09-06T09:36:35.285Z,101340.94
2022-09-06T09:39:11.213Z,101337.56
2022-09-06T09:41:44.321Z,101333.22
2022-09-06T09:44:20.858Z,101338.41
2022-09-06T09:46:50.647Z,101343.19
2022-09-06T09:49:31.292Z,101338.56
2022-09-06T09:52:08.440Z,101335.88
2022-09-06T09:54:39.468Z,101336.63
2022-09-06T09:57:12.197Z,101332.16
2022-09-06T09:59:47.139Z,101343.22
2022-09-06T10:02:24.677Z,101345.16
2022-09-06T10:05:00.655Z,101362.28
2022-09-06T10:07:30.255Z,101352.75
2022-09-06T10:10:05.054Z,101348.03
2022-09-06T10:12:36.095Z,101361.16
2022-09-06T10:15:07.270Z,101350.09
2022-09-06T10:17:38.587Z,101324.72
2022-09-06T10:20:12.778Z,101351.34
2022-09-06T10:22:53.955Z,101269.84
2022-09-06T10:25:40.202Z,101351.19
2022-09-06T10:28:33.687Z,101344.56
2022-09-06T10:31:39.667Z,101324.25
2022-09-06T10:34:21.934Z,101339.28
2022-09-06T10:37:02.053Z,101345.53
2022-09-06T10:39:44.211Z,101345.31
2022-09-06T10:42:23.159Z,101360.50
2022-09-06T10:45:17.016Z,101357.53
2022-09-06T10:47:57.337Z,101356.56
2022-09-06T10:50:34.937Z,101367.75
2022-09-06T10:53:12.093Z,101358.72
2022-09-06T10:55:47.801Z,101359.38
2022-09-06T10:58:24.349Z,101366.75
2022-09-06T11:00:56.880Z,101369.06
2022-09-06T11:06:26.718Z,101378.63
2022-09-06T11:09:09.045Z,101380.13
2022-09-06T11:11:46.428Z,101386.28
2022-09-06T11:14:19.837Z,101387.13
2022-09-06T11:16:55.616Z,101383.94
2022-09-06T11:19:32.329Z,101371.19
2022-09-06T11:22:19.606Z,101347.13
2022-09-06T11:25:15.664Z,101374.75
2022-09-06T11:27:48.385Z,101370.75
2022-09-06T11:30:19.478Z,101367.72
2022-09-06T11:32:51.592Z,101317.59
2022-09-06T11:35:26.613Z,101375.59
2022-09-06T11:38:04.081Z,101388.13
2022-09-06T11:40:39.102Z,101389.16
2022-09-06T11:43:16.027Z,101388.47
2022-09-06T11:45:48.670Z,101422.22
2022-09-06T11:49:01.615Z,101390.97
2022-09-06T11:51:36.271Z,101381.44
2022-09-06T11:54:44.341Z,101386.69
2022-09-06T11:57:23.105Z,101388.13
2022-09-06T12:00:01.729Z,101392.13
2022-09-06T12:02:37.671Z,101388.47
2022-09-06T12:05:25.669Z,101393.66
2022-09-06T12:08:26.944Z,101384.72
2022-09-06T12:11:27.042Z,101383.19
2022-09-06T12:14:03.186Z,101379.50
2022-09-06T12:17:07.323Z,101379.41
2022-09-06T12:19:45.730Z,101381.09
2022-09-06T12:22:54.110Z,101377.03
2022-09-06T12:25:57.655Z,101385.34
2022-09-06T12:28:43.631Z,101374.88
2022-09-06T12:31:26.985Z,101372.75
2022-09-06T12:33:57.654Z,101346.53
2022-09-06T12:36:30.452Z,101356.91
2022-09-06T12:39:04.156Z,101350.28
2022-09-06T12:41:43.099Z,101345.00
2022-09-06T12:44:16.151Z,101295.34
2022-09-06T12:46:50.947Z,101350.63
2022-09-06T12:49:23.381Z,101310.38
2022-09-06T12:51:52.593Z,101343.25
2022-09-06T12:54:25.218Z,101339.88
2022-09-06T12:56:55.093Z,101341.84
2022-09-06T12:59:27.544Z,101358.31
2022-09-06T13:02:05.340Z,101328.16
2022-09-06T13:04:41.042Z,101317.94
2022-09-06T13:07:15.728Z,101331.91
2022-09-06T13:09:50.933Z,101327.41
2022-09-06T13:12:27.648Z,101333.41
2022-09-06T13:14:59.517Z,101312.16
2022-09-06T13:17:32.233Z,101313.88
2022-09-06T13:20:13.093Z,101322.19
2022-09-06T13:22:45.947Z,101314.72
2022-09-06T13:25:23.744Z,101309.56
2022-09-06T13:28:01.659Z,101331.19
2022-09-06T13:30:33.886Z,101325.69
2022-09-06T13:33:04.038Z,101310.84
2022-09-06T13:35:35.869Z,101316.84
2022-09-06T13:38:32.400Z,101309.00
2022-09-06T13:41:13.767Z,101310.53
2022-09-06T13:43:47.795Z,101316.97
2022-09-06T13:46:17.238Z,101316.34
2022-09-06T13:48:46.633Z,101321.59
2022-09-06T13:51:16.338Z,101279.41
2022-09-06T13:53:48.977Z,101322.59
2022-09-06T13:56:19.690Z,101314.41
2022-09-06T13:58:49.627Z,101313.16
2022-09-06T14:01:19.509Z,101315.22
2022-09-06T14:03:50.929Z,101317.25
2022-09-06T14:06:20.718Z,101324.94
2022-09-06T14:09:06.528Z,101321.56
2022-09-06T14:11:38.354Z,101319.22
2022-09-06T14:14:12.312Z,101320.75
2022-09-06T14:16:41.792Z,101321.44
2022-09-06T14:19:11.281Z,101320.44
2022-09-06T14:21:40.423Z,101314.28
2022-09-06T14:24:09.832Z,101328.66
2022-09-06T14:26:42.458Z,101306.84
2022-09-06T14:29:12.104Z,101173.31
2022-09-06T14:31:42.015Z,101306.28
2022-09-06T14:34:11.567Z,101294.09
2022-09-06T14:36:40.775Z,101297.28
2022-09-06T14:39:09.785Z,101285.59
2022-09-06T14:41:38.957Z,101281.06
2022-09-06T14:44:10.508Z,101291.41
2022-09-06T14:46:39.661Z,101294.56
2022-09-06T14:49:11.210Z,101260.69
2022-09-06T14:51:40.933Z,101292.22
2022-09-06T14:54:14.822Z,101298.41
2022-09-06T14:56:44.707Z,101291.25
2022-09-06T14:59:18.398Z,101286.06
2022-09-06T15:01:50.149Z,101293.66
2022-09-06T15:04:20.032Z,101284.44
2022-09-06T15:06:51.982Z,101286.13
2022-09-06T15:09:21.654Z,101288.81
2022-09-06T15:11:54.900Z,101297.56
2022-09-06T15:14:29.389Z,101289.91
2022-09-06T15:16:59.995Z,101262.16
2022-09-06T15:19:33.874Z,101285.41
2022-09-06T15:22:04.164Z,101152.81
2022-09-06T15:24:33.739Z,101276.34
2022-09-06T15:27:09.066Z,101277.03
2022-09-06T15:29:39.505Z,101260.50
2022-09-06T15:32:11.410Z,101261.66
2022-09-06T15:34:40.407Z,101257.97
2022-09-06T15:37:10.101Z,101263.16
2022-09-06T15:39:39.314Z,101254.69
2022-09-06T15:42:09.567Z,101259.03
2022-09-06T15:44:40.669Z,101255.16
2022-09-06T15:47:10.399Z,101257.81
2022-09-06T15:49:41.083Z,101258.50
2022-09-06T15:52:10.774Z,101255.50
2022-09-06T15:54:57.264Z,101248.47
2022-09-06T15:57:28.326Z,101243.78
2022-09-06T16:00:01.219Z,101247.81
2022-09-06T16:02:30.987Z,101232.78
2022-09-06T16:05:01.140Z,101218.09
2022-09-06T16:07:30.354Z,101244.28
2022-09-06T16:10:01.178Z,101241.63
2022-09-06T16:12:30.827Z,101243.28
2022-09-06T16:15:01.778Z,101243.28
2022-09-06T16:17:33.565Z,101241.44
2022-09-06T16:20:04.403Z,101237.28
2022-09-06T16:22:34.233Z,101236.13
2022-09-06T16:25:04.202Z,101237.59
2022-09-06T16:27:33.326Z,101226.09
2022-09-06T16:30:04.862Z,101232.25
2022-09-06T16:32:36.448Z,101229.38
2022-09-06T16:35:06.566Z,101234.84
2022-09-06T16:37:36.174Z,101246.34
2022-09-06T16:40:09.553Z,101250.34
2022-09-06T16:42:40.977Z,101248.28
2022-09-06T16:45:14.789Z,101127.66
2022-09-06T16:47:44.310Z,101222.38
2022-09-06T16:50:13.664Z,101247.25
2022-09-06T16:52:42.881Z,101237.91
2022-09-06T16:55:15.050Z,101245.31
2022-09-06T16:57:44.431Z,101241.59
2022-09-06T17:00:16.781Z,101240.41
2022-09-06T17:02:49.874Z,101247.06
2022-09-06T17:05:21.309Z,101250.81
2022-09-06T17:07:50.789Z,101240.34
2022-09-06T17:10:20.544Z,101226.00
2022-09-06T17:12:52.511Z,101211.81
2022-09-06T17:15:23.247Z,101213.44
2022-09-06T17:17:52.163Z,101235.38
2022-09-06T17:20:21.871Z,101239.78
2022-09-06T17:22:51.666Z,101232.78
2022-09-06T17:25:22.037Z,101237.66
2022-09-06T17:27:51.869Z,101234.16
2022-09-06T17:30:22.816Z,101222.63
2022-09-06T17:32:52.179Z,101228.78
2022-09-06T17:35:21.934Z,101224.59
2022-09-06T17:37:51.343Z,101221.69
2022-09-06T17:40:23.284Z,101218.50
2022-09-06T17:42:53.321Z,101217.28
2022-09-06T17:45:24.313Z,101219.56
2022-09-06T17:47:53.202Z,101222.41
2022-09-06T17:50:22.323Z,101224.53
2022-09-06T17:52:55.033Z,101219.66
2022-09-06T17:55:23.926Z,101214.47
2022-09-06T17:57:52.747Z,101222.47
2022-09-06T18:00:21.633Z,101229.78
2022-09-06T18:02:52.019Z,101199.31
2022-09-06T18:05:20.876Z,101221.19
2022-09-06T18:07:50.908Z,101215.34
2022-09-06T18:10:20.431Z,101214.97
2022-09-06T18:12:50.426Z,101082.13
2022-09-06T18:15:20.253Z,101204.00
2022-09-06T18:17:50.164Z,101202.38
2022-09-06T18:20:20.771Z,101195.69
2022-09-06T18:22:49.941Z,101196.84
2022-09-06T18:25:19.308Z,101198.41
2022-09-06T18:27:49.070Z,101204.72
2022-09-06T18:30:18.875Z,101202.53
2022-09-06T18:32:48.704Z,101208.72
2022-09-06T18:35:18.081Z,101205.22
2022-09-06T18:37:48.881Z,101204.69
2022-09-06T18:40:18.650Z,101201.78
2022-09-06T18:42:47.881Z,101193.19
2022-09-06T18:45:17.718Z,101199.47
2022-09-06T18:47:48.478Z,101197.13
2022-09-06T18:50:22.249Z,101191.09
2022-09-06T18:52:53.007Z,101177.22
2022-09-06T18:55:22.550Z,101050.41
2022-09-06T18:57:52.023Z,101180.78
2022-09-06T19:00:21.505Z,101179.69
2022-09-06T19:02:50.907Z,101187.28
2022-09-06T19:05:20.727Z,101164.78
2022-09-06T19:07:50.121Z,101158.09
2022-09-06T19:10:20.839Z,101147.75
2022-09-06T19:12:53.149Z,101147.91
2022-09-06T19:15:22.647Z,101155.09
2022-09-06T19:17:52.314Z,101142.31
2022-09-06T19:20:22.660Z,101141.94
2022-09-06T19:22:51.711Z,101136.97
2022-09-06T19:25:21.780Z,101138.31
2022-09-06T19:27:53.331Z,101136.97
2022-09-06T19:30:22.662Z,101127.75
2022-09-06T19:32:52.271Z,101114.34
2022-09-06T19:35:22.385Z,101130.34
2022-09-06T19:37:51.738Z,101133.19
2022-09-06T19:40:22.619Z,101120.75
2022-09-06T19:42:54.380Z,101110.13
2022-09-06T19:45:23.837Z,101117.13
2022-09-06T19:47:53.375Z,101117.84
2022-09-06T19:50:23.197Z,101116.44
2022-09-06T19:52:52.720Z,101124.41
2022-09-06T19:55:23.300Z,101112.97
2022-09-06T19:57:53.796Z,101108.50
2022-09-06T20:00:23.490Z,101143.44
2022-09-06T20:02:52.464Z,101107.28
2022-09-06T20:05:22.028Z,101101.97
2022-09-06T20:07:51.776Z,101110.50
2022-09-06T20:10:22.654Z,101086.63
2022-09-06T20:12:51.988Z,101108.53
2022-09-06T20:15:21.955Z,101087.16
2022-09-06T20:17:52.391Z,100985.34
2022-09-06T20:20:22.523Z,101068.31
2022-09-06T20:22:52.346Z,101071.41
2022-09-06T20:25:22.867Z,101058.81
2022-09-06T20:27:54.715Z,101051.88
2022-09-06T20:30:24.081Z,101051.84
2022-09-06T20:32:53.597Z,101050.75
2022-09-06T20:35:23.012Z,101033.28
2022-09-06T20:37:52.269Z,100888.22
2022-09-06T20:40:25.369Z,101033.47
2022-09-06T20:42:54.918Z,101024.00
2022-09-06T20:45:26.556Z,101046.34
2022-09-06T20:47:57.828Z,101038.78
2022-09-06T20:50:27.720Z,101035.72
2022-09-06T20:52:57.421Z,101045.75
2022-09-06T20:55:28.292Z,101048.28
2022-09-06T20:57:57.276Z,101002.53
2022-09-06T21:00:26.959Z,100992.91
2022-09-06T21:02:58.613Z,101016.19
2022-09-06T21:05:30.187Z,101015.34
2022-09-06T21:07:59.968Z,101025.09
2022-09-06T21:10:31.447Z,101022.03
2022-09-06T21:13:00.704Z,101019.81
2022-09-06T21:15:30.022Z,101022.72
2022-09-06T21:17:59.486Z,101032.88
2022-09-06T21:20:29.453Z,101032.38
2022-09-06T21:22:59.604Z,101095.25
2022-09-06T21:25:32.048Z,101145.34
2022-09-06T21:28:03.435Z,101187.16
2022-09-06T21:30:34.130Z,101177.81
2022-09-06T21:33:05.506Z,101191.72
2022-09-06T21:35:37.283Z,101203.03
2022-09-06T21:38:08.197Z,101192.44
2022-09-06T21:40:40.214Z,101070.56
2022-09-06T21:43:10.178Z,101212.34
2022-09-06T21:45:40.634Z,101209.56
2022-09-06T21:48:11.149Z,101218.78
2022-09-06T21:50:41.473Z,101242.75
2022-09-06T21:53:12.053Z,101278.69
2022-09-06T21:55:43.839Z,101292.31
2022-09-06T21:58:15.346Z,101300.03
2022-09-06T22:00:52.683Z,101310.97
2022-09-06T22:03:23.834Z,101325.31
2022-09-06T22:05:55.537Z,101318.13
2022-09-06T22:08:27.052Z,101330.06
2022-09-06T22:11:09.774Z,101333.00
2022-09-06T22:13:40.346Z,101338.97
2022-09-06T22:16:11.547Z,101335.28
2022-09-06T22:18:42.201Z,101361.47
2022-09-06T22:21:18.632Z,101370.16
2022-09-06T22:23:53.332Z,101258.41
2022-09-06T22:26:29.709Z,101356.16
2022-09-06T22:29:01.665Z,101336.91
2022-09-06T22:31:32.955Z,101345.03
2022-09-06T22:34:03.104Z,101350.78
2022-09-06T22:36:34.866Z,101337.59
2022-09-06T22:39:04.298Z,101304.50
2022-09-06T22:41:35.254Z,101313.78
2022-09-06T22:44:05.694Z,101293.19
2022-09-06T22:46:35.332Z,101259.38
2022-09-06T22:49:05.538Z,101285.41
2022-09-06T22:51:34.948Z,101267.25
2022-09-06T22:54:04.640Z,101259.84
2022-09-06T22:56:35.845Z,101259.84
2022-09-06T22:59:05.419Z,101256.88
2022-09-06T23:01:38.898Z,101277.28
2022-09-06T23:04:08.517Z,101268.97
2022-09-06T23:06:38.392Z,101259.44
2022-09-06T23:09:07.593Z,101265.47
2022-09-06T23:11:40.448Z,101258.28
2022-09-06T23:14:09.730Z,101274.41
2022-09-06T23:16:40.924Z,101261.81
2022-09-06T23:19:10.443Z,101170.84
2022-09-06T23:21:39.507Z,101292.78
2022-09-06T23:24:09.004Z,101299.13
2022-09-06T23:26:38.133Z,101317.91
2022-09-06T23:29:08.963Z,101297.63
2022-09-06T23:31:38.175Z,101249.38
2022-09-06T23:34:07.877Z,101265.88
2022-09-06T23:36:40.507Z,101243.38
2022-09-06T23:39:12.541Z,101262.50
2022-09-06T23:41:42.019Z,101248.34
2022-09-06T23:44:12.567Z,101238.25
2022-09-06T23:46:44.045Z,101227.91
2022-09-06T23:49:16.699Z,101238.50
2022-09-06T23:51:45.728Z,101249.13
2022-09-06T23:54:15.267Z,101250.13
2022-09-06T23:56:44.272Z,101248.53
2022-09-06T23:59:14.835Z,101233.72
